Tour Pomerol — 9V9183 — position and weather

sailwx.info

Track history (hours):
 
Tides and Currents Weather Stations Pressure Air Temp Water Temp Dewpoint Dewpoint Depression Visibility Wind Speed Wind Dir Waves Ship Positions

Tour Pomerol

Last reported at 2014-Jul-28 13:34 UTC. Time now 2014-Jul-28 14:22 UTC.
Position N 43°24' E 004°57'.

Length 120 m; draft 6.8 m.

Type: Tanker. MMSI: 563384980.

Date/timePositionNaut miles runAvg speedWind from/ knotsBaromVisibWave heightAir tempDewpointWater temp
2014-Jul-28 13:34N 43°24' E 004°57'0 0.0
2014-Jul-28 12:34N 43°24' E 004°57'0 0.0
2014-Jul-28 11:34N 43°24' E 004°57'0 0.0
2014-Jul-28 10:34N 43°24' E 004°57'0 0.0
2014-Jul-28 09:33N 43°24' E 004°57'0 0.0
2014-Jul-28 08:33N 43°24' E 004°57'0 0.0
2014-Jul-28 07:34N 43°24' E 004°57'0 0.0
2014-Jul-28 06:34N 43°24' E 004°57'0 0.0
2014-Jul-28 05:34N 43°24' E 004°57'0 0.0
2014-Jul-28 04:34N 43°24' E 004°57'0 0.0
2014-Jul-28 03:33N 43°24' E 004°57'0 0.0
2014-Jul-28 02:33N 43°24' E 004°57'0 0.0
2014-Jul-28 01:33N 43°24' E 004°57'0 0.0
2014-Jul-28 00:33N 43°24' E 004°57'0 0.0
2014-Jul-27 23:33N 43°24' E 004°57'0 0.0
2014-Jul-27 22:30N 43°24' E 004°57'0 0.0
2014-Jul-27 21:33N 43°24' E 004°57'0 0.0
2014-Jul-27 20:33N 43°24' E 004°57'0 0.0
2014-Jul-27 19:33N 43°24' E 004°57'0 0.0
2014-Jul-27 18:33N 43°24' E 004°57'0 0.0
2014-Jul-27 17:33N 43°24' E 004°57'0 0.0
2014-Jul-27 16:33N 43°24' E 004°57'0 0.0
2014-Jul-27 15:33N 43°24' E 004°57'0 0.0
2014-Jul-27 14:33N 43°24' E 004°57'0 0.0
2014-Jul-27 13:33N 43°24' E 004°57'0 0.0
2014-Jul-27 12:30N 43°24' E 004°57'0 0.0
2014-Jul-27 11:33N 43°24' E 004°57'0 0.0
2014-Jul-27 10:33N 43°24' E 004°57'0 0.0
2014-Jul-27 09:33N 43°24' E 004°57'0 0.0
2014-Jul-27 08:33N 43°24' E 004°57'0 0.0
2014-Jul-27 07:33N 43°24' E 004°57'1 0.6
2014-Jul-27 06:34N 43°23' E 004°57'9 8.6
2014-Jul-27 05:33N 43°15' E 005°01'1110.8
2014-Jul-27 04:31N 43°05' E 004°56'1211.5
2014-Jul-27 03:27N 42°55' E 004°46'6111.6
2014-Jul-26 22:13N 42°06' E 003°56'811.5
2014-Jul-26 21:33N 42°00' E 003°50'1211.9
2014-Jul-26 20:33N 41°51' E 003°40'1212.2
2014-Jul-26 19:33N 41°41' E 003°30'2412.2
2014-Jul-26 17:33N 41°22' E 003°10'1412.2
2014-Jul-26 16:21N 41°10' E 002°58'1012.2
2014-Jul-26 15:33N 41°03' E 002°50'1212.4
2014-Jul-26 14:33N 40°53' E 002°40'1212.4
2014-Jul-26 13:33N 40°43' E 002°30'1212.4
2014-Jul-26 12:33N 40°33' E 002°20'1212.4
2014-Jul-26 11:33N 40°24' E 002°10'1212.4
2014-Jul-26 10:33N 40°14' E 001°60'1312.6
2014-Jul-26 09:33N 40°04' E 001°50'1212.3
2014-Jul-26 08:33N 39°54' E 001°40'1312.6
2014-Jul-26 07:33N 39°44' E 001°30'1612.2
2014-Jul-26 06:16N 39°32' E 001°17'911.9
2014-Jul-26 05:32N 39°25' E 001°10'1412.1
2014-Jul-26 04:24N 39°13' E 001°01'1012.3
2014-Jul-26 03:33N 39°06' E 000°52'1212.3
2014-Jul-26 02:33N 38°56' E 000°42'1312.6
2014-Jul-26 01:29N 38°45' E 000°31'1212.6
2014-Jul-26 00:31N 38°35' E 000°22'4212.5
2014-Jul-25 21:11N 38°01' W 000°07'912.5
2014-Jul-25 20:29N 37°54' W 000°13'3612.2
2014-Jul-25 17:34N 37°26' W 000°42'2512.2
2014-Jul-25 15:33N 37°09' W 001°04'32211.9
2014-Jul-24 12:31N 36°11' W 007°39'1212.1
2014-Jul-24 11:33N 36°13' W 007°53'1211.8
2014-Jul-24 10:31N 36°16' W 008°08'2412.2
2014-Jul-24 08:33N 36°22' W 008°37'3712.4
2014-Jul-24 05:33N 36°31' W 009°21'1312.2
2014-Jul-24 04:29N 36°41' W 009°33'1112.1
2014-Jul-24 03:32N 36°51' W 009°38'1212.1
2014-Jul-24 02:33N 37°03' W 009°42'1211.9
2014-Jul-24 01:33N 37°14' W 009°46'1212.4
2014-Jul-24 00:33N 37°26' W 009°50'1212.4
2014-Jul-23 23:33N 37°38' W 009°54'1312.6
2014-Jul-23 22:33N 37°50' W 009°57'1312.8
2014-Jul-23 21:32N 38°03' W 010°01'1312.9
2014-Jul-23 20:33N 38°16' W 010°04'1412.6
2014-Jul-23 19:27N 38°29' W 010°08'1412.3
2014-Jul-23 18:19N 38°43' W 010°11'3912.4
2014-Jul-23 15:10N 39°22' W 010°12'  
2014-Jul-20 20:33N 50°21' W 001°01'1414.0
2014-Jul-20 19:33N 50°25' W 000°40'1313.3
2014-Jul-20 18:34N 50°28' W 000°20'1412.7
2014-Jul-20 17:26N 50°32' E 000°01'1112.0
2014-Jul-20 16:33N 50°35' E 000°18'1111.4
2014-Jul-20 15:34N 50°38' E 000°35'1211.7
2014-Jul-20 14:33N 50°45' E 000°50'1212.1
2014-Jul-20 13:33N 50°52' E 001°05'1313.0
2014-Jul-20 12:34N 51°01' E 001°21'1413.5
2014-Jul-20 11:33N 51°09' E 001°37'1312.8
2014-Jul-20 10:33N 51°19' E 001°51'1212.2
2014-Jul-20 09:33N 51°29' E 002°02'1211.5
2014-Jul-20 08:33N 51°38' E 002°14'1111.2
2014-Jul-20 07:33N 51°46' E 002°26'1110.3
2014-Jul-20 06:31N 51°56' E 002°34'13512.1
2014-Jul-19 19:20N 53°57' E 004°12'1012.4
2014-Jul-19 18:33N 54°02' E 004°26'1312.8
2014-Jul-19 17:33N 54°04' E 004°48'1312.8
2014-Jul-19 16:33N 54°05' E 005°09'1312.6
2014-Jul-19 15:33N 54°07' E 005°31'1312.8
2014-Jul-19 14:33N 54°09' E 005°53'1212.0
2014-Jul-19 13:33N 54°11' E 006°13'1411.0
2014-Jul-19 12:15N 54°11' E 006°37'811.3
2014-Jul-19 11:33N 54°11' E 006°51'1212.0
2014-Jul-19 10:33N 54°12' E 007°11'1212.3
2014-Jul-19 09:33N 54°12' E 007°32'1312.6
2014-Jul-19 08:33N 54°06' E 007°51'1212.3
2014-Jul-19 07:33N 54°01' E 008°10'1515.2
2014-Jul-19 06:33N 53°58' E 008°36'1312.6
2014-Jul-19 05:34N 53°51' E 008°53'1211.6
2014-Jul-19 04:33N 53°53' E 009°12'1110.6
2014-Jul-19 03:33N 53°45' E 009°24'1212.5
2014-Jul-19 02:34N 53°35' E 009°37'1211.2
2014-Jul-19 01:28N 53°31' E 009°56'0 0.0
2014-Jul-19 00:28N 53°31' E 009°56'0 0.0
2014-Jul-18 23:31N 53°31' E 009°56'0 0.0
2014-Jul-18 22:28N 53°31' E 009°56'0 0.0
2014-Jul-18 21:22N 53°31' E 009°56'0 0.0
2014-Jul-18 20:22N 53°31' E 009°56'0 0.0
2014-Jul-18 19:31N 53°31' E 009°56'0 0.0
2014-Jul-18 18:28N 53°31' E 009°56'0 0.0
2014-Jul-18 17:28N 53°31' E 009°56'0 0.0
2014-Jul-18 16:28N 53°31' E 009°56'0 0.0
2014-Jul-18 15:31N 53°31' E 009°56'0 0.0
2014-Jul-18 14:20N 53°31' E 009°56'  
Track history (hours):
 
Tides and Currents Weather Stations Pressure Air Temp Water Temp Dewpoint Dewpoint Depression Visibility Wind Speed Wind Dir Waves Ship Positions

Tour Pomerol

Last reported at 2014-Jul-28 13:34 UTC. Time now 2014-Jul-28 14:22 UTC.
Position N 43°24' E 004°57'.

Length 120 m; draft 6.8 m.

Type: Tanker. MMSI: 563384980.

Date/timePositionNaut miles runAvg speedWind from/ knotsBaromVisibWave heightAir tempDewpointWater temp
2014-Jul-28 13:34N 43°24' E 004°57'0 0.0
2014-Jul-28 12:34N 43°24' E 004°57'0 0.0
2014-Jul-28 11:34N 43°24' E 004°57'0 0.0
2014-Jul-28 10:34N 43°24' E 004°57'0 0.0
2014-Jul-28 09:33N 43°24' E 004°57'0 0.0
2014-Jul-28 08:33N 43°24' E 004°57'0 0.0
2014-Jul-28 07:34N 43°24' E 004°57'0 0.0
2014-Jul-28 06:34N 43°24' E 004°57'0 0.0
2014-Jul-28 05:34N 43°24' E 004°57'0 0.0
2014-Jul-28 04:34N 43°24' E 004°57'0 0.0
2014-Jul-28 03:33N 43°24' E 004°57'0 0.0
2014-Jul-28 02:33N 43°24' E 004°57'0 0.0
2014-Jul-28 01:33N 43°24' E 004°57'0 0.0
2014-Jul-28 00:33N 43°24' E 004°57'0 0.0
2014-Jul-27 23:33N 43°24' E 004°57'0 0.0
2014-Jul-27 22:30N 43°24' E 004°57'0 0.0
2014-Jul-27 21:33N 43°24' E 004°57'0 0.0
2014-Jul-27 20:33N 43°24' E 004°57'0 0.0
2014-Jul-27 19:33N 43°24' E 004°57'0 0.0
2014-Jul-27 18:33N 43°24' E 004°57'0 0.0
2014-Jul-27 17:33N 43°24' E 004°57'0 0.0
2014-Jul-27 16:33N 43°24' E 004°57'0 0.0
2014-Jul-27 15:33N 43°24' E 004°57'0 0.0
2014-Jul-27 14:33N 43°24' E 004°57'0 0.0
2014-Jul-27 13:33N 43°24' E 004°57'0 0.0
2014-Jul-27 12:30N 43°24' E 004°57'0 0.0
2014-Jul-27 11:33N 43°24' E 004°57'0 0.0
2014-Jul-27 10:33N 43°24' E 004°57'0 0.0
2014-Jul-27 09:33N 43°24' E 004°57'0 0.0
2014-Jul-27 08:33N 43°24' E 004°57'0 0.0
2014-Jul-27 07:33N 43°24' E 004°57'1 0.6
2014-Jul-27 06:34N 43°23' E 004°57'9 8.6
2014-Jul-27 05:33N 43°15' E 005°01'1110.8
2014-Jul-27 04:31N 43°05' E 004°56'1211.5
2014-Jul-27 03:27N 42°55' E 004°46'6111.6
2014-Jul-26 22:13N 42°06' E 003°56'811.5
2014-Jul-26 21:33N 42°00' E 003°50'1211.9
2014-Jul-26 20:33N 41°51' E 003°40'1212.2
2014-Jul-26 19:33N 41°41' E 003°30'2412.2
2014-Jul-26 17:33N 41°22' E 003°10'1412.2
2014-Jul-26 16:21N 41°10' E 002°58'1012.2
2014-Jul-26 15:33N 41°03' E 002°50'1212.4
2014-Jul-26 14:33N 40°53' E 002°40'1212.4
2014-Jul-26 13:33N 40°43' E 002°30'1212.4
2014-Jul-26 12:33N 40°33' E 002°20'1212.4
2014-Jul-26 11:33N 40°24' E 002°10'1212.4
2014-Jul-26 10:33N 40°14' E 001°60'1312.6
2014-Jul-26 09:33N 40°04' E 001°50'1212.3
2014-Jul-26 08:33N 39°54' E 001°40'1312.6
2014-Jul-26 07:33N 39°44' E 001°30'1612.2
2014-Jul-26 06:16N 39°32' E 001°17'911.9
2014-Jul-26 05:32N 39°25' E 001°10'1412.1
2014-Jul-26 04:24N 39°13' E 001°01'1012.3
2014-Jul-26 03:33N 39°06' E 000°52'1212.3
2014-Jul-26 02:33N 38°56' E 000°42'1312.6
2014-Jul-26 01:29N 38°45' E 000°31'1212.6
2014-Jul-26 00:31N 38°35' E 000°22'4212.5
2014-Jul-25 21:11N 38°01' W 000°07'912.5
2014-Jul-25 20:29N 37°54' W 000°13'3612.2
2014-Jul-25 17:34N 37°26' W 000°42'2512.2
2014-Jul-25 15:33N 37°09' W 001°04'32211.9
2014-Jul-24 12:31N 36°11' W 007°39'1212.1
2014-Jul-24 11:33N 36°13' W 007°53'1211.8
2014-Jul-24 10:31N 36°16' W 008°08'2412.2
2014-Jul-24 08:33N 36°22' W 008°37'3712.4
2014-Jul-24 05:33N 36°31' W 009°21'1312.2
2014-Jul-24 04:29N 36°41' W 009°33'1112.1
2014-Jul-24 03:32N 36°51' W 009°38'1212.1
2014-Jul-24 02:33N 37°03' W 009°42'1211.9
2014-Jul-24 01:33N 37°14' W 009°46'1212.4
2014-Jul-24 00:33N 37°26' W 009°50'1212.4
2014-Jul-23 23:33N 37°38' W 009°54'1312.6
2014-Jul-23 22:33N 37°50' W 009°57'1312.8
2014-Jul-23 21:32N 38°03' W 010°01'1312.9
2014-Jul-23 20:33N 38°16' W 010°04'1412.6
2014-Jul-23 19:27N 38°29' W 010°08'1412.3
2014-Jul-23 18:19N 38°43' W 010°11'3912.4
2014-Jul-23 15:10N 39°22' W 010°12'  
2014-Jul-20 20:33N 50°21' W 001°01'1414.0
2014-Jul-20 19:33N 50°25' W 000°40'1313.3
2014-Jul-20 18:34N 50°28' W 000°20'1412.7
2014-Jul-20 17:26N 50°32' E 000°01'1112.0
2014-Jul-20 16:33N 50°35' E 000°18'1111.4
2014-Jul-20 15:34N 50°38' E 000°35'1211.7
2014-Jul-20 14:33N 50°45' E 000°50'1212.1
2014-Jul-20 13:33N 50°52' E 001°05'1313.0
2014-Jul-20 12:34N 51°01' E 001°21'1413.5
2014-Jul-20 11:33N 51°09' E 001°37'1312.8
2014-Jul-20 10:33N 51°19' E 001°51'1212.2
2014-Jul-20 09:33N 51°29' E 002°02'1211.5
2014-Jul-20 08:33N 51°38' E 002°14'1111.2
2014-Jul-20 07:33N 51°46' E 002°26'1110.3
2014-Jul-20 06:31N 51°56' E 002°34'13512.1
2014-Jul-19 19:20N 53°57' E 004°12'1012.4
2014-Jul-19 18:33N 54°02' E 004°26'1312.8
2014-Jul-19 17:33N 54°04' E 004°48'1312.8
2014-Jul-19 16:33N 54°05' E 005°09'1312.6
2014-Jul-19 15:33N 54°07' E 005°31'1312.8
2014-Jul-19 14:33N 54°09' E 005°53'1212.0
2014-Jul-19 13:33N 54°11' E 006°13'1411.0
2014-Jul-19 12:15N 54°11' E 006°37'811.3
2014-Jul-19 11:33N 54°11' E 006°51'1212.0
2014-Jul-19 10:33N 54°12' E 007°11'1212.3
2014-Jul-19 09:33N 54°12' E 007°32'1312.6
2014-Jul-19 08:33N 54°06' E 007°51'1212.3
2014-Jul-19 07:33N 54°01' E 008°10'1515.2
2014-Jul-19 06:33N 53°58' E 008°36'1312.6
2014-Jul-19 05:34N 53°51' E 008°53'1211.6
2014-Jul-19 04:33N 53°53' E 009°12'1110.6
2014-Jul-19 03:33N 53°45' E 009°24'1212.5
2014-Jul-19 02:34N 53°35' E 009°37'1211.2
2014-Jul-19 01:28N 53°31' E 009°56'0 0.0
2014-Jul-19 00:28N 53°31' E 009°56'0 0.0
2014-Jul-18 23:31N 53°31' E 009°56'0 0.0
2014-Jul-18 22:28N 53°31' E 009°56'0 0.0
2014-Jul-18 21:22N 53°31' E 009°56'0 0.0
2014-Jul-18 20:22N 53°31' E 009°56'0 0.0
2014-Jul-18 19:31N 53°31' E 009°56'0 0.0
2014-Jul-18 18:28N 53°31' E 009°56'0 0.0
2014-Jul-18 17:28N 53°31' E 009°56'0 0.0
2014-Jul-18 16:28N 53°31' E 009°56'0 0.0
2014-Jul-18 15:31N 53°31' E 009°56'0 0.0
2014-Jul-18 14:20N 53°31' E 009°56'  

Dump ship's entire track history